createdAt,value
2017-12-08T00:00:28.107Z,95.93
2017-12-08T00:01:08.663Z,95.36
2017-12-08T00:01:49.246Z,94.98
2017-12-08T00:02:29.859Z,95.74
2017-12-08T00:03:10.528Z,95.46
2017-12-08T00:03:51.085Z,95.84
2017-12-08T00:04:31.702Z,95.65
2017-12-08T00:05:12.282Z,95.74
2017-12-08T00:05:52.862Z,95.84
2017-12-08T00:06:33.494Z,95.65
2017-12-08T00:07:14.086Z,95.74
2017-12-08T00:07:54.668Z,95.84
2017-12-08T00:08:35.266Z,95.46
2017-12-08T00:09:15.868Z,95.84
2017-12-08T00:09:56.490Z,95.74
2017-12-08T00:10:37.102Z,95.46
2017-12-08T00:11:17.691Z,95.65
2017-12-08T00:11:58.273Z,95.84
2017-12-08T00:12:38.852Z,95.84
2017-12-08T00:13:19.436Z,95.84
2017-12-08T00:14:00.053Z,95.84
2017-12-08T00:14:40.662Z,95.93
2017-12-08T00:15:21.279Z,96.03
2017-12-08T00:16:01.914Z,95.74
2017-12-08T00:16:42.499Z,96.59
2017-12-08T00:17:23.167Z,96.03
2017-12-08T00:18:03.755Z,96.69
2017-12-08T00:18:44.329Z,96.78
2017-12-08T00:19:24.923Z,96.69
2017-12-08T00:20:05.512Z,96.31
2017-12-08T00:20:46.103Z,96.69
2017-12-08T00:21:26.692Z,97.26
2017-12-08T00:22:07.280Z,97.36
2017-12-08T00:22:47.887Z,96.69
2017-12-08T00:23:28.490Z,96.69
2017-12-08T00:24:09.080Z,97.45
2017-12-08T00:24:49.694Z,96.88
2017-12-08T00:25:30.300Z,97.07
2017-12-08T00:26:10.886Z,96.88
2017-12-08T00:26:51.514Z,97.36
2017-12-08T00:27:32.110Z,97.17
2017-12-08T00:28:12.730Z,96.69
2017-12-08T00:28:53.401Z,97.74
2017-12-08T00:29:33.986Z,97.26
2017-12-08T00:30:14.583Z,97.83
2017-12-08T00:30:55.177Z,97.83
2017-12-08T00:31:35.758Z,98.02
2017-12-08T00:32:16.388Z,97.92
2017-12-08T00:32:56.961Z,98.02
2017-12-08T00:33:37.712Z,97.92
2017-12-08T00:34:18.422Z,97.83
2017-12-08T00:34:59.041Z,96.97
2017-12-08T00:35:39.665Z,97.92
2017-12-08T00:36:20.277Z,97.07
2017-12-08T00:37:00.862Z,97.36
2017-12-08T00:37:41.439Z,97.45
2017-12-08T00:38:22.034Z,97.36
2017-12-08T00:39:02.642Z,97.92
2017-12-08T00:39:43.245Z,98.4
2017-12-08T00:40:23.844Z,98.21
2017-12-08T00:41:04.447Z,97.74
2017-12-08T00:41:45.015Z,97.92
2017-12-08T00:42:25.615Z,97.83
2017-12-08T00:43:06.203Z,98.11
2017-12-08T00:43:46.768Z,98.02
2017-12-08T00:44:27.335Z,98.02
2017-12-08T00:45:07.933Z,98.3
2017-12-08T00:45:48.515Z,98.11
2017-12-08T00:46:29.121Z,98.11
2017-12-08T00:47:09.731Z,97.74
2017-12-08T00:47:50.328Z,98.68
2017-12-08T00:48:30.907Z,98.68
2017-12-08T00:49:11.488Z,98.4
2017-12-08T00:49:52.086Z,98.59
2017-12-08T00:50:32.667Z,98.59
2017-12-08T00:51:13.248Z,98.3
2017-12-08T00:51:53.865Z,98.49
2017-12-08T00:52:34.434Z,98.59
2017-12-08T00:53:15.011Z,97.92
2017-12-08T00:53:55.647Z,98.11
2017-12-08T00:54:36.206Z,98.87
2017-12-08T00:55:16.776Z,98.49
2017-12-08T00:55:57.358Z,98.3
2017-12-08T00:56:37.950Z,98.4
2017-12-08T00:57:18.605Z,98.4
2017-12-08T00:57:59.177Z,98.97
2017-12-08T00:58:39.776Z,98.4
2017-12-08T00:59:20.353Z,98.49
2017-12-08T01:00:00.937Z,98.68
2017-12-08T01:00:41.503Z,98.59
2017-12-08T01:01:22.091Z,98.59
2017-12-08T01:02:02.676Z,98.3
2017-12-08T01:02:43.234Z,98.68
2017-12-08T01:03:23.806Z,98.21
2017-12-08T01:04:04.402Z,98.21
2017-12-08T01:04:44.972Z,98.4
2017-12-08T01:05:25.538Z,98.4
2017-12-08T01:06:06.120Z,98.4
2017-12-08T01:06:46.684Z,98.3
2017-12-08T01:07:27.263Z,98.97
2017-12-08T01:08:07.830Z,98.4
2017-12-08T01:08:48.415Z,98.4
2017-12-08T01:09:28.991Z,98.4
2017-12-08T01:10:09.579Z,98.21
2017-12-08T01:10:50.153Z,98.78
2017-12-08T01:11:30.732Z,98.78
2017-12-08T01:12:11.320Z,98.68
2017-12-08T01:12:51.933Z,98.49
2017-12-08T01:13:32.537Z,98.59
2017-12-08T01:14:13.150Z,98.78
2017-12-08T01:14:53.705Z,98.59
2017-12-08T01:15:34.279Z,98.68
2017-12-08T01:16:14.848Z,98.4
2017-12-08T01:16:56.130Z,98.78
2017-12-08T01:17:36.679Z,99.35
2017-12-08T01:18:17.287Z,99.16
2017-12-08T01:18:57.845Z,99.06
2017-12-08T01:19:38.432Z,99.21
2017-12-08T01:20:19.022Z,99.06
2017-12-08T01:20:59.607Z,98.83
2017-12-08T01:21:40.177Z,98.78
2017-12-08T01:22:20.781Z,98.83
2017-12-08T01:23:01.351Z,98.45
2017-12-08T01:23:41.980Z,98.87
2017-12-08T01:24:22.533Z,98.73
2017-12-08T01:25:03.126Z,98.87
2017-12-08T01:25:43.700Z,98.73
2017-12-08T01:26:24.261Z,98.78
2017-12-08T01:27:04.842Z,98.73
2017-12-08T01:27:45.425Z,98.64
2017-12-08T01:28:26.004Z,98.78
2017-12-08T01:29:06.578Z,98.78
2017-12-08T01:29:47.166Z,98.87
2017-12-08T01:30:27.752Z,98.59
2017-12-08T01:31:08.345Z,98.83
2017-12-08T01:31:48.951Z,98.68
2017-12-08T01:32:29.546Z,98.68
2017-12-08T01:33:10.130Z,98.73
2017-12-08T01:33:50.715Z,98.59
2017-12-08T01:34:31.275Z,98.49
2017-12-08T01:35:11.849Z,99.26
2017-12-08T01:35:52.436Z,99.06
2017-12-08T01:36:33.076Z,99.63
2017-12-08T01:37:13.662Z,99.63
2017-12-08T01:37:54.268Z,99.35
2017-12-08T01:38:34.868Z,98.97
2017-12-08T01:39:15.466Z,99.44
2017-12-08T01:39:56.051Z,99.82
2017-12-08T01:40:36.622Z,99.87
2017-12-08T01:41:17.202Z,99.99
2017-12-08T01:41:57.803Z,99.87
2017-12-08T01:42:38.417Z,99.58
2017-12-08T01:43:19.067Z,99.91
2017-12-08T01:43:59.654Z,99.44
2017-12-08T01:44:40.228Z,99.26
2017-12-08T01:45:20.806Z,99.44
2017-12-08T01:46:01.382Z,99.82
2017-12-08T01:46:41.960Z,99.68
2017-12-08T01:47:22.611Z,99.87
2017-12-08T01:48:03.236Z,99.73
2017-12-08T01:48:43.825Z,99.99
2017-12-08T01:49:24.395Z,99.82
2017-12-08T01:50:04.986Z,99.73
2017-12-08T01:50:45.596Z,99.99
2017-12-08T01:51:26.166Z,99.82
2017-12-08T01:52:06.777Z,99.91
2017-12-08T01:52:47.351Z,99.49
2017-12-08T01:53:27.970Z,99.82
2017-12-08T01:54:08.538Z,99.73
2017-12-08T01:54:49.142Z,99.35
2017-12-08T01:55:29.718Z,99.63
2017-12-08T01:56:10.297Z,99.87
2017-12-08T01:56:50.893Z,99.68
2017-12-08T01:57:31.497Z,99.63
2017-12-08T01:58:12.082Z,99.63
2017-12-08T01:58:52.666Z,99.77
2017-12-08T01:59:33.287Z,99.87
2017-12-08T02:00:13.862Z,99.99
2017-12-08T02:00:54.429Z,99.97
2017-12-08T02:01:35.000Z,99.68
2017-12-08T02:02:15.607Z,99.77
2017-12-08T02:02:56.165Z,99.35
2017-12-08T02:03:36.733Z,99.97
2017-12-08T02:04:17.298Z,99.63
2017-12-08T02:04:57.871Z,99.99
2017-12-08T02:05:38.453Z,99.82
2017-12-08T02:06:19.041Z,99.77
2017-12-08T02:06:59.609Z,99.99
2017-12-08T02:07:40.207Z,99.97
2017-12-08T02:08:20.812Z,99.97
2017-12-08T02:09:01.402Z,99.77
2017-12-08T02:09:42.005Z,99.77
2017-12-08T02:10:22.597Z,99.97
2017-12-08T02:11:03.152Z,99.97
2017-12-08T02:11:43.714Z,99.77
2017-12-08T02:12:24.299Z,99.97
2017-12-08T02:13:04.870Z,99.99
2017-12-08T02:13:45.490Z,99.99
2017-12-08T02:14:26.050Z,99.99
2017-12-08T02:15:06.649Z,99.99
2017-12-08T02:15:47.237Z,99.97
2017-12-08T02:16:27.813Z,99.99
2017-12-08T02:17:08.378Z,99.99
2017-12-08T02:17:48.950Z,99.97
2017-12-08T02:18:29.524Z,99.77
2017-12-08T02:19:10.102Z,99.77
2017-12-08T02:19:50.671Z,99.73
2017-12-08T02:20:31.250Z,99.97
2017-12-08T02:21:11.822Z,99.77
2017-12-08T02:21:52.421Z,99.68
2017-12-08T02:22:33.011Z,99.99
2017-12-08T02:23:13.599Z,99.99
2017-12-08T02:23:54.173Z,99.99
2017-12-08T02:24:34.803Z,99.99
2017-12-08T02:25:15.380Z,99.87
2017-12-08T02:25:55.953Z,99.99
2017-12-08T02:26:36.529Z,99.97
2017-12-08T02:27:17.095Z,99.97
2017-12-08T02:27:57.678Z,99.87
2017-12-08T02:28:38.268Z,99.68
2017-12-08T02:29:18.828Z,99.99
2017-12-08T02:29:59.420Z,99.77
2017-12-08T02:30:39.999Z,99.87
2017-12-08T02:31:20.561Z,99.77
2017-12-08T02:32:01.139Z,99.68
2017-12-08T02:32:41.713Z,99.87
2017-12-08T02:33:22.293Z,99.87
2017-12-08T02:34:02.886Z,99.99
2017-12-08T02:34:43.467Z,99.99
2017-12-08T02:35:24.040Z,99.87
2017-12-08T02:36:04.606Z,99.87
2017-12-08T02:36:45.167Z,99.99
2017-12-08T02:37:25.770Z,99.97
2017-12-08T02:38:06.353Z,99.77
2017-12-08T02:38:46.933Z,99.77
2017-12-08T02:39:27.495Z,99.77
2017-12-08T02:40:08.068Z,99.77
2017-12-08T02:40:48.651Z,99.87
2017-12-08T02:41:29.239Z,99.68
2017-12-08T02:42:09.831Z,99.99
2017-12-08T02:42:50.425Z,99.58
2017-12-08T02:43:31.013Z,99.77
2017-12-08T02:44:11.590Z,99.58
2017-12-08T02:44:52.162Z,99.77
2017-12-08T02:45:32.904Z,99.77
2017-12-08T02:46:13.465Z,99.97
2017-12-08T02:46:54.060Z,99.87
2017-12-08T02:47:34.655Z,99.97
2017-12-08T02:48:15.223Z,99.87
2017-12-08T02:48:55.790Z,99.87
2017-12-08T02:49:36.364Z,99.11
2017-12-08T02:50:16.941Z,99.3
2017-12-08T02:50:57.505Z,99.49
2017-12-08T02:51:38.090Z,99.4
2017-12-08T02:52:18.653Z,99.11
2017-12-08T02:52:59.218Z,99.99
2017-12-08T02:53:39.811Z,99.49
2017-12-08T02:54:20.424Z,99.49
2017-12-08T02:55:00.992Z,99.21
2017-12-08T02:55:41.566Z,99.58
2017-12-08T02:56:22.137Z,99.11
2017-12-08T02:57:02.710Z,99.77
2017-12-08T02:57:43.309Z,99.21
2017-12-08T02:58:23.899Z,99.11
2017-12-08T02:59:04.459Z,99.68
2017-12-08T02:59:45.028Z,99.21
2017-12-08T03:00:25.617Z,99.3
2017-12-08T03:01:06.182Z,99.11
2017-12-08T03:01:46.754Z,98.45
2017-12-08T03:02:27.347Z,98.73
2017-12-08T03:03:07.887Z,98.54
2017-12-08T03:03:48.457Z,98.73
2017-12-08T03:04:29.073Z,98.83
2017-12-08T03:05:09.765Z,98.26
2017-12-08T03:05:50.346Z,98.45
2017-12-08T03:06:30.905Z,98.83
2017-12-08T03:07:11.486Z,98.83
2017-12-08T03:07:52.057Z,98.83
2017-12-08T03:08:32.618Z,98.64
2017-12-08T03:09:13.174Z,98.83
2017-12-08T03:09:53.754Z,98.35
2017-12-08T03:10:34.312Z,99.4
2017-12-08T03:11:14.881Z,99.3
2017-12-08T03:11:55.508Z,99.58
2017-12-08T03:12:36.078Z,98.45
2017-12-08T03:13:16.642Z,98.92
2017-12-08T03:13:57.209Z,98.64
2017-12-08T03:14:37.777Z,98.73
2017-12-08T03:15:18.344Z,98.64
2017-12-08T03:15:58.916Z,98.26
2017-12-08T03:16:39.504Z,98.45
2017-12-08T03:17:20.118Z,98.92
2017-12-08T03:18:00.710Z,98.64
2017-12-08T03:18:41.279Z,98.45
2017-12-08T03:19:21.848Z,98.45
2017-12-08T03:20:02.443Z,98.45
2017-12-08T03:20:43.007Z,98.64
2017-12-08T03:21:23.583Z,98.45
2017-12-08T03:22:04.167Z,98.64
2017-12-08T03:22:44.731Z,98.35
2017-12-08T03:23:25.337Z,98.45
2017-12-08T03:24:05.906Z,98.26
2017-12-08T03:24:46.485Z,98.26
2017-12-08T03:25:27.073Z,98.26
2017-12-08T03:26:07.674Z,98.54
2017-12-08T03:26:48.253Z,98.45
2017-12-08T03:27:28.862Z,98.64
2017-12-08T03:28:09.436Z,98.45
2017-12-08T03:28:50.012Z,98.64
2017-12-08T03:29:30.625Z,98.54
2017-12-08T03:30:11.217Z,98.45
2017-12-08T03:30:51.787Z,98.35
2017-12-08T03:31:32.390Z,98.73
2017-12-08T03:32:12.954Z,98.26
2017-12-08T03:32:53.513Z,98.35
2017-12-08T03:33:34.102Z,98.45
2017-12-08T03:34:14.676Z,98.16
2017-12-08T03:34:55.265Z,98.26
2017-12-08T03:35:35.839Z,98.64
2017-12-08T03:36:16.431Z,98.64
2017-12-08T03:36:57.026Z,98.16
2017-12-08T03:37:37.600Z,98.45
2017-12-08T03:38:18.179Z,98.54
2017-12-08T03:38:58.762Z,97.78
2017-12-08T03:39:39.334Z,97.69
2017-12-08T03:40:19.905Z,98.45
2017-12-08T03:41:00.469Z,98.64
2017-12-08T03:41:41.060Z,98.64
2017-12-08T03:42:21.627Z,98.07
2017-12-08T03:43:02.203Z,98.73
2017-12-08T03:43:42.778Z,98.45
2017-12-08T03:44:23.361Z,98.64
2017-12-08T03:45:03.955Z,97.78
2017-12-08T03:45:44.525Z,98.07
2017-12-08T03:46:25.101Z,97.88
2017-12-08T03:47:05.690Z,97.88
2017-12-08T03:47:46.281Z,98.16
2017-12-08T03:48:26.914Z,98.07
2017-12-08T03:49:07.508Z,98.35
2017-12-08T03:49:48.091Z,97.97
2017-12-08T03:50:28.662Z,97.88
2017-12-08T03:51:09.288Z,97.97
2017-12-08T03:51:49.816Z,98.16
2017-12-08T03:52:30.381Z,98.16
2017-12-08T03:53:10.963Z,98.26
2017-12-08T03:53:51.538Z,98.07
2017-12-08T03:54:32.112Z,97.69
2017-12-08T03:55:12.664Z,98.07
2017-12-08T03:55:53.247Z,97.78
2017-12-08T03:56:33.789Z,98.16
2017-12-08T03:57:14.364Z,97.97
2017-12-08T03:57:54.932Z,97.41
2017-12-08T03:58:35.501Z,97.22
2017-12-08T03:59:16.066Z,97.22
2017-12-08T03:59:56.689Z,97.22
2017-12-08T04:00:37.259Z,98.07
2017-12-08T04:01:17.848Z,97.78
2017-12-08T04:01:58.419Z,97.78
2017-12-08T04:02:39.014Z,98.07
2017-12-08T04:03:19.591Z,97.02
2017-12-08T04:04:00.182Z,97.69
2017-12-08T04:04:40.769Z,97.12
2017-12-08T04:05:21.345Z,97.97
2017-12-08T04:06:01.914Z,97.5
2017-12-08T04:06:42.477Z,97.69
2017-12-08T04:07:23.063Z,97.6
2017-12-08T04:08:03.649Z,97.6
2017-12-08T04:08:44.232Z,97.6
2017-12-08T04:09:24.814Z,97.41
2017-12-08T04:10:05.386Z,97.41
2017-12-08T04:10:45.967Z,97.5
2017-12-08T04:11:26.540Z,98.16
2017-12-08T04:12:07.113Z,97.97
2017-12-08T04:12:47.714Z,97.41
2017-12-08T04:13:28.282Z,97.97
2017-12-08T04:14:08.847Z,97.31
2017-12-08T04:14:49.455Z,97.69
2017-12-08T04:15:30.089Z,97.97
2017-12-08T04:16:10.746Z,96.93
2017-12-08T04:16:51.317Z,97.88
2017-12-08T04:17:31.921Z,96.93
2017-12-08T04:18:12.527Z,97.12
2017-12-08T04:18:53.107Z,97.02
2017-12-08T04:19:33.686Z,97.41
2017-12-08T04:20:14.265Z,97.12
2017-12-08T04:20:54.818Z,97.78
2017-12-08T04:21:35.390Z,97.97
2017-12-08T04:22:15.967Z,98.07
2017-12-08T04:22:56.544Z,98.07
2017-12-08T04:23:37.110Z,97.88
2017-12-08T04:24:17.670Z,97.78
2017-12-08T04:24:58.278Z,97.41
2017-12-08T04:25:38.839Z,97.97
2017-12-08T04:26:19.413Z,97.78
2017-12-08T04:26:59.985Z,98.07
2017-12-08T04:27:40.557Z,97.78
2017-12-08T04:28:21.147Z,97.78
2017-12-08T04:29:01.729Z,97.69
2017-12-08T04:29:42.316Z,97.6
2017-12-08T04:30:22.903Z,97.41
2017-12-08T04:31:03.477Z,97.5
2017-12-08T04:31:44.040Z,97.6
2017-12-08T04:32:24.628Z,97.97
2017-12-08T04:33:05.194Z,98.16
2017-12-08T04:33:45.777Z,97.6
2017-12-08T04:34:26.371Z,97.69
2017-12-08T04:35:06.946Z,97.78
2017-12-08T04:35:47.510Z,97.97
2017-12-08T04:36:28.086Z,97.02
2017-12-08T04:37:08.662Z,97.88
2017-12-08T04:37:49.245Z,97.97
2017-12-08T04:38:29.808Z,97.02
2017-12-08T04:39:10.399Z,97.41
2017-12-08T04:39:50.954Z,97.41
2017-12-08T04:40:31.541Z,97.31
2017-12-08T04:41:12.151Z,97.12
2017-12-08T04:41:52.718Z,97.22
2017-12-08T04:42:33.305Z,97.78
2017-12-08T04:43:13.921Z,97.69
2017-12-08T04:43:54.496Z,97.6
2017-12-08T04:44:35.072Z,97.78
2017-12-08T04:45:15.682Z,96.93
2017-12-08T04:45:56.263Z,97.12
2017-12-08T04:46:36.832Z,97.12
2017-12-08T04:47:17.400Z,97.5
2017-12-08T04:47:57.974Z,97.5
2017-12-08T04:48:38.591Z,97.12
2017-12-08T04:49:19.176Z,96.93
2017-12-08T04:49:59.771Z,97.22
2017-12-08T04:50:40.376Z,97.41
2017-12-08T04:51:20.936Z,96.83
2017-12-08T04:52:01.524Z,97.02
2017-12-08T04:52:42.122Z,96.74
2017-12-08T04:53:22.755Z,97.41
2017-12-08T04:54:03.339Z,97.41
2017-12-08T04:54:43.933Z,97.5
2017-12-08T04:55:24.549Z,97.12
2017-12-08T04:56:05.091Z,97.22
2017-12-08T04:56:45.637Z,96.74
2017-12-08T04:57:26.222Z,97.02
2017-12-08T04:58:06.816Z,97.5
2017-12-08T04:58:47.403Z,97.22
2017-12-08T04:59:27.989Z,97.41
2017-12-08T05:00:08.575Z,97.02
2017-12-08T05:00:49.143Z,97.12
2017-12-08T05:01:29.731Z,97.22
2017-12-08T05:02:10.293Z,97.12
2017-12-08T05:02:50.889Z,96.83
2017-12-08T05:03:31.465Z,96.74
2017-12-08T05:04:12.045Z,96.74
2017-12-08T05:04:52.665Z,97.02
2017-12-08T05:05:33.246Z,97.02
2017-12-08T05:06:13.808Z,97.22
2017-12-08T05:06:54.387Z,97.12
2017-12-08T05:07:34.970Z,97.22
2017-12-08T05:08:15.563Z,97.41
2017-12-08T05:08:56.155Z,96.93
2017-12-08T05:09:36.752Z,97.02
2017-12-08T05:10:17.345Z,96.55
2017-12-08T05:10:57.926Z,96.74
2017-12-08T05:11:38.526Z,96.64
2017-12-08T05:12:19.131Z,96.36
2017-12-08T05:12:59.697Z,96.74
2017-12-08T05:13:40.275Z,96.83
2017-12-08T05:14:20.863Z,96.64
2017-12-08T05:15:01.424Z,96.55
2017-12-08T05:15:42.016Z,96.64
2017-12-08T05:16:22.599Z,97.12
2017-12-08T05:17:03.176Z,97.22
2017-12-08T05:17:43.790Z,97.22
2017-12-08T05:18:24.387Z,97.02
2017-12-08T05:19:05.009Z,97.12
2017-12-08T05:19:45.609Z,97.12
2017-12-08T05:20:26.179Z,97.02
2017-12-08T05:21:06.762Z,97.12
2017-12-08T05:21:47.338Z,97.5
2017-12-08T05:22:27.902Z,97.5
2017-12-08T05:23:08.494Z,97.41
2017-12-08T05:23:49.059Z,97.41
2017-12-08T05:24:29.643Z,97.22
2017-12-08T05:25:10.227Z,97.22
2017-12-08T05:25:50.798Z,97.31
2017-12-08T05:26:31.364Z,97.41
2017-12-08T05:27:11.947Z,97.12
2017-12-08T05:27:52.532Z,97.41
2017-12-08T05:28:33.115Z,97.02
2017-12-08T05:29:13.695Z,97.22
2017-12-08T05:29:54.300Z,96.74
2017-12-08T05:30:34.868Z,96.64
2017-12-08T05:31:15.448Z,96.55
2017-12-08T05:31:56.056Z,96.74
2017-12-08T05:32:36.614Z,96.55
2017-12-08T05:33:17.208Z,96.83
2017-12-08T05:33:57.784Z,96.64
2017-12-08T05:34:38.363Z,96.55
2017-12-08T05:35:18.939Z,96.64
2017-12-08T05:35:59.509Z,96.93
2017-12-08T05:36:40.078Z,96.55
2017-12-08T05:37:20.669Z,96.36
2017-12-08T05:38:01.248Z,96.74
2017-12-08T05:38:41.834Z,96.93
2017-12-08T05:39:22.552Z,96.74
2017-12-08T05:40:03.020Z,96.74
2017-12-08T05:40:43.573Z,97.45
2017-12-08T05:41:24.123Z,96.69
2017-12-08T05:42:04.685Z,97.02
2017-12-08T05:42:45.284Z,97.17
2017-12-08T05:43:25.843Z,97.41
2017-12-08T05:44:06.423Z,97.31
2017-12-08T05:44:47.001Z,96.64
2017-12-08T05:45:28.595Z,96.74
2017-12-08T05:46:09.200Z,96.45
2017-12-08T05:46:49.783Z,96.64
2017-12-08T05:47:30.393Z,96.74
2017-12-08T05:48:10.957Z,96.45
2017-12-08T05:48:51.525Z,96.36
2017-12-08T05:49:32.438Z,96.88
2017-12-08T05:50:13.102Z,96.74
2017-12-08T05:50:53.680Z,96.69
2017-12-08T05:51:34.373Z,96.55
2017-12-08T05:52:14.962Z,97.02
2017-12-08T05:52:55.535Z,96.74
2017-12-08T05:53:36.133Z,96.83
2017-12-08T05:54:16.723Z,96.83
2017-12-08T05:54:57.329Z,96.74
2017-12-08T05:55:37.918Z,96.36
2017-12-08T05:56:19.027Z,96.45
2017-12-08T05:56:59.586Z,96.74
2017-12-08T05:57:40.156Z,96.93
2017-12-08T05:58:20.757Z,96.36
2017-12-08T05:59:01.352Z,96.41
2017-12-08T05:59:41.967Z,96.55
2017-12-08T06:00:22.525Z,96.22
2017-12-08T06:01:03.100Z,96.41
2017-12-08T06:01:43.699Z,96.93
2017-12-08T06:02:24.264Z,96.78
2017-12-08T06:03:04.836Z,97.02
2017-12-08T06:03:45.537Z,96.88
2017-12-08T06:04:26.591Z,96.69
2017-12-08T06:05:07.297Z,96.55
2017-12-08T06:05:48.074Z,96.74
2017-12-08T06:06:28.927Z,96.55
2017-12-08T06:07:09.881Z,96.74
2017-12-08T06:07:50.816Z,96.74
2017-12-08T06:08:31.729Z,96.69
2017-12-08T06:09:16.089Z,96.69
2017-12-08T06:09:56.979Z,96.69
2017-12-08T06:10:38.025Z,96.69
2017-12-08T06:11:18.889Z,96.36
2017-12-08T06:11:59.764Z,96.55
2017-12-08T06:12:40.652Z,96.12
2017-12-08T06:13:21.399Z,96.22
2017-12-08T06:14:02.057Z,96.26
2017-12-08T06:14:42.768Z,96.5
2017-12-08T06:15:23.389Z,96.36
2017-12-08T06:16:04.290Z,96.5
2017-12-08T06:16:45.438Z,95.89
2017-12-08T06:17:26.379Z,95.7
2017-12-08T06:18:07.107Z,95.74
2017-12-08T06:18:47.915Z,95.74
2017-12-08T06:19:28.772Z,95.84
2017-12-08T06:20:09.671Z,95.89
2017-12-08T06:20:50.252Z,95.7
2017-12-08T06:21:31.127Z,95.55
2017-12-08T06:22:12.299Z,95.7
2017-12-08T06:22:52.871Z,95.89
2017-12-08T06:23:33.480Z,95.89
2017-12-08T06:24:14.035Z,95.6
2017-12-08T06:24:54.596Z,95.7
2017-12-08T06:25:35.155Z,95.84
2017-12-08T06:26:15.719Z,95.65
2017-12-08T06:26:56.301Z,95.41
2017-12-08T06:27:36.872Z,95.6
2017-12-08T06:28:17.458Z,95.7
2017-12-08T06:28:58.013Z,95.79
2017-12-08T06:29:38.650Z,95.51
2017-12-08T06:30:19.201Z,95.7
2017-12-08T06:30:59.770Z,95.22
2017-12-08T06:31:40.445Z,95.12
2017-12-08T06:32:21.177Z,95.12
2017-12-08T06:33:02.112Z,95.41
2017-12-08T06:33:43.090Z,95.41
2017-12-08T06:34:23.694Z,94.93
2017-12-08T06:35:04.634Z,95.22
2017-12-08T06:35:45.339Z,95.41
2017-12-08T06:36:25.984Z,95.12
2017-12-08T06:37:06.676Z,95.6
2017-12-08T06:37:47.290Z,95.98
2017-12-08T06:38:27.858Z,95.31
2017-12-08T06:39:08.432Z,95.31
2017-12-08T06:39:49.367Z,95.6
2017-12-08T06:40:30.317Z,95.51
2017-12-08T06:41:11.134Z,95.79
2017-12-08T06:41:51.973Z,95.31
2017-12-08T06:42:32.734Z,95.41
2017-12-08T06:43:13.636Z,95.51
2017-12-08T06:43:54.588Z,95.51
2017-12-08T06:44:35.149Z,94.93
2017-12-08T06:45:15.740Z,94.84
2017-12-08T06:45:56.321Z,94.56
2017-12-08T06:46:36.889Z,94.65
2017-12-08T06:47:17.489Z,94.46
2017-12-08T06:47:58.075Z,94.65
2017-12-08T06:48:38.641Z,94.84
2017-12-08T06:49:19.224Z,95.12
2017-12-08T06:49:59.904Z,95.12
2017-12-08T06:50:40.512Z,95.22
2017-12-08T06:51:21.365Z,94.84
2017-12-08T06:52:01.973Z,94.46
2017-12-08T06:52:42.546Z,94.46
2017-12-08T06:53:23.344Z,94.93
2017-12-08T06:54:04.118Z,94.84
2017-12-08T06:54:44.948Z,95.03
2017-12-08T06:55:25.538Z,94.37
2017-12-08T06:56:06.253Z,94.37
2017-12-08T06:56:47.083Z,94.46
2017-12-08T06:57:27.766Z,94.27
2017-12-08T06:58:08.484Z,94.65
2017-12-08T06:58:49.315Z,94.37
2017-12-08T06:59:29.986Z,94.74
2017-12-08T07:00:10.688Z,94.08
2017-12-08T07:00:51.259Z,93.99
2017-12-08T07:01:32.011Z,94.18
2017-12-08T07:02:12.792Z,93.99
2017-12-08T07:02:53.658Z,94.08
2017-12-08T07:03:34.248Z,93.8
2017-12-08T07:04:14.809Z,93.32
2017-12-08T07:04:55.373Z,93.13
2017-12-08T07:05:36.238Z,93.08
2017-12-08T07:06:17.260Z,93.23
2017-12-08T07:06:57.939Z,93.27
2017-12-08T07:07:38.578Z,92.99
2017-12-08T07:08:19.319Z,93.41
2017-12-08T07:09:00.128Z,93.04
2017-12-08T07:09:41.052Z,92.94
2017-12-08T07:10:21.867Z,93.27
2017-12-08T07:12:14.910Z,93.32
2017-12-08T07:12:55.848Z,93.23
2017-12-08T07:13:36.671Z,93.18
2017-12-08T07:14:17.396Z,93.37
2017-12-08T07:14:58.330Z,93.08
2017-12-08T07:15:39.101Z,93.27
2017-12-08T07:16:19.965Z,92.9
2017-12-08T07:17:00.813Z,93.37
2017-12-08T07:17:41.514Z,93.41
2017-12-08T07:18:22.229Z,93.41
2017-12-08T07:19:03.155Z,93.27
2017-12-08T07:19:43.832Z,93.08
2017-12-08T07:20:24.406Z,93.27
2017-12-08T07:21:05.000Z,93.27
2017-12-08T07:21:45.642Z,93.94
2017-12-08T07:22:26.221Z,93.7
2017-12-08T07:23:07.492Z,93.75
2017-12-08T07:23:48.462Z,93.32
2017-12-08T07:24:29.256Z,93.18
2017-12-08T07:25:09.977Z,93.27
2017-12-08T07:25:50.667Z,93.41
2017-12-08T07:26:32.349Z,93.23
2017-12-08T07:27:13.282Z,93.08
2017-12-08T07:27:54.065Z,93.41
2017-12-08T07:28:35.098Z,93.41
2017-12-08T07:29:16.062Z,92.94
2017-12-08T07:29:56.945Z,93.41
2017-12-08T07:30:37.981Z,93.32
2017-12-08T07:31:18.828Z,93.6
2017-12-08T07:31:59.714Z,92.75
2017-12-08T07:32:40.462Z,93.13
2017-12-08T07:33:21.155Z,92.85
2017-12-08T07:34:01.800Z,92.28
2017-12-08T07:34:42.411Z,92.52
2017-12-08T07:35:23.019Z,93.13
2017-12-08T07:36:03.626Z,93.13
2017-12-08T07:36:44.278Z,93.08
2017-12-08T07:37:24.839Z,92.8
2017-12-08T07:38:05.403Z,92.75
2017-12-08T07:38:45.982Z,92.85
2017-12-08T07:39:26.808Z,91.99
2017-12-08T07:40:07.568Z,92.66
2017-12-08T07:40:48.601Z,92.56
2017-12-08T07:41:29.177Z,92.47
2017-12-08T07:42:09.794Z,92.47
2017-12-08T07:42:50.381Z,92.75
2017-12-08T07:43:30.959Z,92.47
2017-12-08T07:44:11.551Z,92.42
2017-12-08T07:44:52.140Z,92.42
2017-12-08T07:45:32.712Z,92.09
2017-12-08T07:46:13.283Z,92.09
2017-12-08T07:46:53.855Z,92.28
2017-12-08T07:47:34.425Z,92.04
2017-12-08T07:48:14.987Z,92.75
2017-12-08T07:48:55.635Z,92.33
2017-12-08T07:49:40.371Z,92.75
2017-12-08T07:50:20.990Z,92.66
2017-12-08T07:51:01.606Z,92.09
2017-12-08T07:51:42.208Z,91.94
2017-12-08T07:52:23.004Z,92.23
2017-12-08T07:53:03.625Z,92.18
2017-12-08T07:53:44.235Z,91.75
2017-12-08T07:54:24.817Z,91.71
2017-12-08T07:55:05.379Z,92.09
2017-12-08T07:55:45.969Z,91.47
2017-12-08T07:56:26.551Z,91.47
2017-12-08T07:57:07.127Z,91.42
2017-12-08T07:57:48.555Z,91.28
2017-12-08T07:58:29.120Z,91.66
2017-12-08T07:59:09.699Z,91.85
2017-12-08T07:59:50.290Z,91.52
2017-12-08T08:00:30.912Z,91.89
2017-12-08T08:01:11.458Z,91.56
2017-12-08T08:01:52.090Z,91.75
2017-12-08T08:02:32.690Z,91.66
2017-12-08T08:03:13.266Z,91.85
2017-12-08T08:03:53.824Z,91.38
2017-12-08T08:04:34.410Z,91.75
2017-12-08T08:05:15.000Z,91.56
2017-12-08T08:05:55.574Z,91.38
2017-12-08T08:06:36.152Z,91.75
2017-12-08T08:07:16.724Z,91.47
2017-12-08T08:07:57.330Z,91.47
2017-12-08T08:08:37.934Z,91.47
2017-12-08T08:09:18.543Z,91.47
2017-12-08T08:09:59.138Z,91.85
2017-12-08T08:10:39.774Z,91.56
2017-12-08T08:11:20.345Z,91.56
2017-12-08T08:12:00.916Z,91.56
2017-12-08T08:12:41.507Z,91.38
2017-12-08T08:13:22.111Z,91.19
2017-12-08T08:14:02.693Z,91.19
2017-12-08T08:14:43.267Z,91.09
2017-12-08T08:15:23.860Z,91.56
2017-12-08T08:16:04.418Z,91.75
2017-12-08T08:16:45.071Z,91.85
2017-12-08T08:17:25.569Z,91.47
2017-12-08T08:18:06.158Z,91.56
2017-12-08T08:18:46.712Z,91.09
2017-12-08T08:19:27.281Z,91.38
2017-12-08T08:20:07.863Z,91.56
2017-12-08T08:20:48.421Z,91.47
2017-12-08T08:21:29.014Z,91.75
2017-12-08T08:22:09.593Z,91.75
2017-12-08T08:22:50.200Z,91.75
2017-12-08T08:23:30.780Z,91.66
2017-12-08T08:24:11.359Z,91.19
2017-12-08T08:24:51.918Z,91
2017-12-08T08:25:32.491Z,91.19
2017-12-08T08:26:13.083Z,91
2017-12-08T08:26:53.653Z,91.56
2017-12-08T08:27:34.235Z,91.56
2017-12-08T08:28:14.812Z,91.47
2017-12-08T08:28:55.385Z,91.56
2017-12-08T08:29:35.958Z,91.66
2017-12-08T08:30:16.525Z,91.09
2017-12-08T08:30:57.093Z,91.19
2017-12-08T08:31:37.682Z,91.28
2017-12-08T08:32:18.247Z,91.19
2017-12-08T08:32:58.819Z,91
2017-12-08T08:33:39.442Z,91
2017-12-08T08:34:19.991Z,91.19
2017-12-08T08:35:00.583Z,91.56
2017-12-08T08:35:41.149Z,91.19
2017-12-08T08:36:21.733Z,91.28
2017-12-08T08:37:02.312Z,90.43
2017-12-08T08:37:42.891Z,90.43
2017-12-08T08:38:23.480Z,90.71
2017-12-08T08:39:04.090Z,90.71
2017-12-08T08:39:44.685Z,91.09
2017-12-08T08:40:25.262Z,90.9
2017-12-08T08:41:05.853Z,90.71
2017-12-08T08:41:46.421Z,90.71
2017-12-08T08:42:27.058Z,90.81
2017-12-08T08:43:07.632Z,90.24
2017-12-08T08:43:48.238Z,90.05
2017-12-08T08:44:28.809Z,89.67
2017-12-08T08:45:09.388Z,89.1
2017-12-08T08:45:49.961Z,89.24